Time;durP1;ratioP1;P1;durP2;ratioP2;P2;SDS_P1;SDS_P2;PMS_P1;PMS_P2;Temp;Humidity;BMP_temperature;BMP_pressure;BME280_temperature;BME280_humidity;BME280_pressure;Samples;Min_cycle;Max_cycle;Signal;HPM_P1;HPM_P2
2023/08/19 00:01:38;;;;;;;26.40;23.40;;;24.30;85.10;;;;;;5015050;28;20049;-78
2023/08/19 00:04:04;;;;;;;26.40;23.65;;;24.30;85.00;;;;;;5015837;28;20045;-77
2023/08/19 00:06:36;;;;;;;27.75;23.45;;;24.40;84.90;;;;;;5018586;28;20026;-77
2023/08/19 00:09:04;;;;;;;26.70;22.52;;;24.40;84.70;;;;;;5008256;28;20034;-77
2023/08/19 00:11:37;;;;;;;24.25;21.23;;;24.40;84.60;;;;;;5004865;28;20057;-77
2023/08/19 00:14:04;;;;;;;25.95;21.92;;;24.40;84.50;;;;;;5013424;28;20068;-79
2023/08/19 00:16:34;;;;;;;26.80;21.95;;;24.40;84.50;;;;;;5006993;28;20025;-79
2023/08/19 00:19:01;;;;;;;24.35;21.63;;;24.40;84.50;;;;;;5012421;28;20284;-78
2023/08/19 00:21:26;;;;;;;25.52;21.55;;;24.40;84.40;;;;;;5010860;28;20037;-78
2023/08/19 00:23:52;;;;;;;24.05;21.17;;;24.40;84.50;;;;;;5009848;28;20117;-77
2023/08/19 00:26:18;;;;;;;24.38;20.30;;;24.40;84.70;;;;;;4994454;28;20034;-78
2023/08/19 00:28:43;;;;;;;27.45;21.63;;;24.40;84.70;;;;;;4993622;28;20034;-78
2023/08/19 00:31:09;;;;;;;25.60;20.80;;;24.40;84.70;;;;;;4986413;28;20050;-78
2023/08/19 00:33:35;;;;;;;25.30;20.10;;;24.40;84.60;;;;;;4988724;28;20042;-78
2023/08/19 00:36:02;;;;;;;22.65;20.15;;;24.40;84.70;;;;;;5020454;28;20453;-77
2023/08/19 00:38:28;;;;;;;23.13;19.55;;;24.40;84.70;;;;;;5017726;28;20029;-77
2023/08/19 00:40:54;;;;;;;21.73;19.27;;;24.30;84.80;;;;;;5010673;28;20034;-77
2023/08/19 00:43:20;;;;;;;23.35;19.27;;;24.30;84.90;;;;;;5010106;28;20057;-77
2023/08/19 00:45:50;;;;;;;22.88;19.55;;;24.30;84.90;;;;;;5015691;28;20098;-79
2023/08/19 00:48:18;;;;;;;21.50;19.20;;;24.30;85.10;;;;;;5020824;28;20454;-77
2023/08/19 00:50:44;;;;;;;22.08;18.95;;;24.30;85.10;;;;;;5007693;28;20387;-78
2023/08/19 00:53:12;;;;;;;20.38;18.02;;;24.30;85.20;;;;;;5030627;28;20437;-79
2023/08/19 00:55:37;;;;;;;21.05;17.65;;;24.30;85.20;;;;;;5010512;28;20030;-78
2023/08/19 00:58:03;;;;;;;21.80;17.92;;;24.30;85.20;;;;;;5014378;28;20043;-78
2023/08/19 01:00:31;;;;;;;19.02;16.83;;;24.20;85.40;;;;;;5011086;28;20626;-79
2023/08/19 01:02:58;;;;;;;19.10;17.08;;;24.20;85.40;;;;;;5015193;28;20102;-78
2023/08/19 01:05:37;;;;;;;20.98;17.90;;;24.20;85.40;;;;;;5007459;28;20042;-79
2023/08/19 01:08:07;;;;;;;19.67;17.58;;;24.20;85.40;;;;;;5011258;28;20026;-77
2023/08/19 01:10:44;;;;;;;19.92;17.02;;;24.20;85.40;;;;;;5015591;28;20030;-78
2023/08/19 01:13:15;;;;;;;21.75;16.00;;;24.20;85.40;;;;;;4983886;28;20434;-78
2023/08/19 01:15:55;;;;;;;20.23;16.95;;;24.20;85.40;;;;;;5003891;28;20409;-78
2023/08/19 01:18:23;;;;;;;17.80;14.77;;;24.20;85.40;;;;;;5000340;28;20022;-78
2023/08/19 01:20:50;;;;;;;16.13;13.70;;;24.20;85.40;;;;;;4992732;28;20072;-78
2023/08/19 01:23:27;;;;;;;17.13;14.23;;;24.10;85.70;;;;;;4989203;28;20026;-79
2023/08/19 01:25:53;;;;;;;18.33;14.57;;;24.10;85.80;;;;;;5011470;28;20048;-79
2023/08/19 01:28:21;;;;;;;18.52;14.57;;;24.10;85.80;;;;;;5012247;28;20022;-78
2023/08/19 01:30:47;;;;;;;17.70;15.05;;;24.10;85.50;;;;;;5011508;28;20085;-78
2023/08/19 01:33:13;;;;;;;17.02;14.57;;;24.10;85.30;;;;;;5011970;28;20030;-79
2023/08/19 01:35:46;;;;;;;16.75;14.10;;;24.10;85.10;;;;;;5006040;28;20045;-78
2023/08/19 01:38:28;;;;;;;19.30;13.60;;;24.10;85.10;;;;;;5001253;28;20465;-78
2023/08/19 01:40:54;;;;;;;15.48;13.35;;;24.10;85.00;;;;;;4991155;28;20031;-78
2023/08/19 01:43:20;;;;;;;14.80;12.90;;;24.10;85.10;;;;;;4993632;28;20036;-78
2023/08/19 01:45:46;;;;;;;18.85;13.30;;;24.10;85.10;;;;;;4992602;28;20117;-79
2023/08/19 01:48:12;;;;;;;16.95;13.80;;;24.10;85.00;;;;;;4997418;28;20028;-79
2023/08/19 01:50:37;;;;;;;14.98;13.10;;;24.10;85.10;;;;;;4993625;28;20026;-78
2023/08/19 01:53:03;;;;;;;15.63;13.95;;;24.10;85.00;;;;;;4997013;28;20029;-78
2023/08/19 01:55:29;;;;;;;13.48;12.07;;;24.10;85.10;;;;;;4988223;28;20022;-78
2023/08/19 01:57:54;;;;;;;15.02;11.75;;;24.10;85.10;;;;;;4989890;28;20478;-78
2023/08/19 02:00:20;;;;;;;14.55;12.30;;;24.10;85.20;;;;;;5008529;28;20485;-79
2023/08/19 02:02:45;;;;;;;16.00;12.35;;;24.10;85.20;;;;;;5015227;28;20104;-78
2023/08/19 02:05:14;;;;;;;14.80;11.68;;;24.10;85.20;;;;;;5020281;28;20105;-78
2023/08/19 02:07:40;;;;;;;12.95;10.32;;;24.10;85.20;;;;;;5014159;28;20041;-78
2023/08/19 02:10:07;;;;;;;14.63;11.77;;;24.10;85.20;;;;;;5009836;28;20578;-78
2023/08/19 02:12:32;;;;;;;13.90;11.02;;;24.10;85.20;;;;;;5014878;28;20398;-78
2023/08/19 02:14:58;;;;;;;16.45;11.07;;;24.10;85.20;;;;;;5014515;28;20030;-78
2023/08/19 02:17:24;;;;;;;13.23;10.82;;;24.10;85.30;;;;;;5014940;28;20029;-78
2023/08/19 02:19:50;;;;;;;14.73;11.07;;;24.10;85.30;;;;;;5014707;28;20129;-78
2023/08/19 02:22:20;;;;;;;13.48;10.27;;;24.10;85.20;;;;;;5018781;28;20112;-78
2023/08/19 02:24:49;;;;;;;15.18;10.30;;;24.10;85.10;;;;;;5010191;28;20037;-78
2023/08/19 02:27:15;;;;;;;14.95;10.05;;;24.10;85.20;;;;;;5022307;28;20124;-78
2023/08/19 02:29:41;;;;;;;13.23;9.73;;;24.10;85.10;;;;;;5018312;28;20053;-78
2023/08/19 02:32:07;;;;;;;14.18;10.32;;;24.10;84.90;;;;;;5008711;28;20087;-78
2023/08/19 02:34:32;;;;;;;13.02;10.38;;;24.10;84.70;;;;;;5001133;28;20033;-78
2023/08/19 02:36:58;;;;;;;13.07;9.27;;;24.10;84.40;;;;;;4999911;28;20038;-78
2023/08/19 02:39:24;;;;;;;13.30;9.45;;;24.30;84.00;;;;;;4990241;28;20038;-78
2023/08/19 02:41:49;;;;;;;10.57;9.05;;;24.30;83.90;;;;;;4987713;28;20125;-78
2023/08/19 02:44:15;;;;;;;12.52;10.20;;;24.30;83.80;;;;;;4982378;28;20050;-78
2023/08/19 02:46:41;;;;;;;13.52;9.43;;;24.30;83.50;;;;;;4987921;28;20089;-78
2023/08/19 02:49:06;;;;;;;13.18;9.32;;;24.40;83.10;;;;;;4985797;28;20026;-78
2023/08/19 02:51:32;;;;;;;14.60;9.43;;;24.40;83.00;;;;;;4987912;28;20049;-79
2023/08/19 02:53:58;;;;;;;11.43;9.38;;;24.40;82.90;;;;;;5002553;28;20034;-79
2023/08/19 02:56:24;;;;;;;13.00;9.57;;;24.50;83.10;;;;;;5016243;28;20026;-79
2023/08/19 02:58:50;;;;;;;12.95;9.82;;;24.50;83.20;;;;;;5009895;28;20478;-79
2023/08/19 03:01:16;;;;;;;15.90;11.07;;;24.50;83.10;;;;;;5011085;28;20034;-78
2023/08/19 03:03:41;;;;;;;11.90;10.38;;;24.40;83.40;;;;;;5011519;28;20022;-78
2023/08/19 03:06:07;;;;;;;14.13;10.52;;;24.40;83.50;;;;;;5007422;28;20038;-78
2023/08/19 03:08:33;;;;;;;11.65;10.02;;;24.40;83.70;;;;;;4991904;28;20039;-78
2023/08/19 03:10:59;;;;;;;12.80;9.85;;;24.30;83.60;;;;;;4989895;28;20034;-78
2023/08/19 03:13:24;;;;;;;12.55;10.38;;;24.40;83.60;;;;;;4997117;28;20038;-78
2023/08/19 03:15:51;;;;;;;12.00;9.52;;;24.40;83.60;;;;;;4986226;28;20459;-77
2023/08/19 03:18:17;;;;;;;14.27;9.48;;;24.30;83.70;;;;;;4982673;28;20023;-78
2023/08/19 03:20:43;;;;;;;12.50;8.90;;;24.30;83.60;;;;;;4987368;28;20027;-78
2023/08/19 03:23:08;;;;;;;11.95;8.80;;;24.30;83.60;;;;;;4983283;28;20378;-78
2023/08/19 03:25:34;;;;;;;15.98;9.05;;;24.30;83.60;;;;;;4985562;28;20479;-78
2023/08/19 03:28:00;;;;;;;12.45;8.70;;;24.30;83.60;;;;;;4987283;28;20018;-78
2023/08/19 03:30:25;;;;;;;11.02;8.82;;;24.30;83.50;;;;;;4987244;28;20042;-78
2023/08/19 03:32:51;;;;;;;11.18;8.30;;;24.40;83.50;;;;;;4992968;28;20049;-78
2023/08/19 03:35:17;;;;;;;11.63;8.77;;;24.40;83.30;;;;;;4992897;28;20085;-78
2023/08/19 03:37:42;;;;;;;12.73;8.88;;;24.30;83.40;;;;;;4995694;28;20084;-78
2023/08/19 03:40:09;;;;;;;12.50;8.85;;;24.40;83.50;;;;;;5005860;28;20045;-78
2023/08/19 03:42:34;;;;;;;11.73;9.00;;;24.30;83.40;;;;;;5014023;28;20490;-78
2023/08/19 03:45:00;;;;;;;15.32;8.23;;;24.40;83.30;;;;;;5017185;28;20048;-78
2023/08/19 03:47:26;;;;;;;15.63;9.35;;;24.50;82.90;;;;;;5015370;28;20068;-78
2023/08/19 03:49:52;;;;;;;12.95;8.55;;;24.40;83.00;;;;;;5011115;28;20037;-78
2023/08/19 03:52:17;;;;;;;12.77;8.88;;;24.40;83.00;;;;;;5012924;28;20083;-78
2023/08/19 03:54:43;;;;;;;12.52;9.25;;;24.50;82.80;;;;;;5004099;28;20034;-78
2023/08/19 03:57:09;;;;;;;11.63;9.45;;;24.50;82.60;;;;;;4995280;28;20030;-78
2023/08/19 03:59:35;;;;;;;12.13;9.02;;;24.40;82.60;;;;;;4977003;28;20483;-78
2023/08/19 04:02:01;;;;;;;13.98;9.73;;;24.50;82.70;;;;;;4987023;28;20078;-78
2023/08/19 04:04:27;;;;;;;14.18;9.60;;;24.40;82.70;;;;;;4985885;28;20070;-78
2023/08/19 04:06:52;;;;;;;12.13;8.68;;;24.40;82.70;;;;;;4984803;28;20031;-78
2023/08/19 04:09:18;;;;;;;13.63;8.90;;;24.40;82.70;;;;;;4988730;28;20035;-78
2023/08/19 04:11:43;;;;;;;11.90;9.43;;;24.40;82.80;;;;;;4986077;28;20033;-78
2023/08/19 04:14:09;;;;;;;12.65;9.43;;;24.40;82.80;;;;;;4992304;28;20049;-78
2023/08/19 04:16:37;;;;;;;13.85;9.50;;;24.40;82.70;;;;;;4993404;28;20130;-78
2023/08/19 04:19:03;;;;;;;12.57;9.23;;;24.40;83.00;;;;;;5001044;28;20675;-77
2023/08/19 04:21:29;;;;;;;12.77;9.00;;;24.40;83.00;;;;;;5014992;28;20049;-78
2023/08/19 04:23:54;;;;;;;14.50;10.30;;;24.30;83.10;;;;;;5016596;28;20048;-77
2023/08/19 04:26:20;;;;;;;14.55;10.15;;;24.30;83.10;;;;;;5013784;28;20034;-77
2023/08/19 04:28:46;;;;;;;18.00;10.00;;;24.40;83.10;;;;;;5016918;28;20029;-78
2023/08/19 04:31:12;;;;;;;14.20;9.68;;;24.40;83.20;;;;;;5015565;28;20041;-77
2023/08/19 04:33:38;;;;;;;14.18;10.05;;;24.40;83.30;;;;;;5008094;28;20046;-78
2023/08/19 04:36:04;;;;;;;13.68;10.25;;;24.30;83.50;;;;;;4996792;28;20477;-77
2023/08/19 04:38:30;;;;;;;13.60;10.02;;;24.30;83.80;;;;;;4997228;28;20069;-78
2023/08/19 04:40:58;;;;;;;16.13;10.70;;;24.30;84.10;;;;;;4995624;28;20054;-77
2023/08/19 04:43:24;;;;;;;13.40;10.07;;;24.20;84.30;;;;;;5000610;28;20080;-78
2023/08/19 04:45:50;;;;;;;14.50;9.73;;;24.20;84.40;;;;;;5004900;28;20056;-79
2023/08/19 04:48:16;;;;;;;12.85;9.98;;;24.20;84.40;;;;;;5015156;28;20096;-78
2023/08/19 04:50:41;;;;;;;15.82;10.43;;;24.10;84.50;;;;;;5017345;28;20025;-77
2023/08/19 04:53:07;;;;;;;13.23;10.02;;;24.20;84.50;;;;;;5014785;28;20026;-77
2023/08/19 04:55:32;;;;;;;13.88;9.63;;;24.10;84.40;;;;;;5008451;28;20076;-78
2023/08/19 04:57:58;;;;;;;11.98;9.85;;;24.20;84.50;;;;;;5009276;28;20429;-78
2023/08/19 05:00:24;;;;;;;18.55;9.63;;;24.20;84.30;;;;;;4997622;28;20034;-77
2023/08/19 05:02:50;;;;;;;11.43;9.43;;;24.20;84.40;;;;;;4989786;28;20373;-77
2023/08/19 05:05:15;;;;;;;12.30;9.60;;;24.20;84.40;;;;;;5004611;28;20037;-79
2023/08/19 05:07:41;;;;;;;11.98;9.52;;;24.30;84.40;;;;;;5004328;28;20025;-77
2023/08/19 05:10:08;;;;;;;15.18;10.45;;;24.20;84.40;;;;;;5006212;28;20038;-79
2023/08/19 05:12:35;;;;;;;11.50;9.93;;;24.20;84.50;;;;;;5004081;28;20459;-77
2023/08/19 05:15:00;;;;;;;14.13;9.93;;;24.20;84.60;;;;;;5003386;28;20393;-77
2023/08/19 05:17:26;;;;;;;15.50;10.05;;;24.20;84.60;;;;;;5004338;28;20496;-79
2023/08/19 05:19:54;;;;;;;14.40;9.57;;;24.20;84.50;;;;;;4998818;28;20140;-79
2023/08/19 05:22:21;;;;;;;14.38;10.00;;;24.20;84.60;;;;;;4997760;28;20025;-79
2023/08/19 05:24:46;;;;;;;12.10;9.95;;;24.20;84.60;;;;;;5000757;28;20042;-79
2023/08/19 05:27:12;;;;;;;14.65;9.73;;;24.30;84.60;;;;;;4995919;28;20038;-78
2023/08/19 05:29:37;;;;;;;13.23;9.88;;;24.20;84.60;;;;;;4991918;28;20352;-79
2023/08/19 05:32:04;;;;;;;17.15;10.93;;;24.20;84.70;;;;;;4990519;28;20120;-78
2023/08/19 05:34:29;;;;;;;13.73;9.98;;;24.20;84.70;;;;;;4984694;28;20035;-78
2023/08/19 05:36:55;;;;;;;13.82;10.40;;;24.20;84.60;;;;;;4988177;28;20069;-77
2023/08/19 05:39:21;;;;;;;12.15;10.20;;;24.20;84.80;;;;;;4983799;28;20030;-77
2023/08/19 05:41:46;;;;;;;14.48;10.50;;;24.20;84.90;;;;;;4998613;28;20041;-77
2023/08/19 05:44:12;;;;;;;13.77;11.00;;;24.20;84.90;;;;;;4996248;28;20121;-78
2023/08/19 05:46:38;;;;;;;14.10;10.43;;;24.20;84.90;;;;;;5001641;28;20030;-78
2023/08/19 05:49:03;;;;;;;14.85;10.63;;;24.20;84.90;;;;;;4997854;28;20040;-77
2023/08/19 05:51:29;;;;;;;14.75;10.93;;;24.20;84.90;;;;;;4988633;28;20030;-78
2023/08/19 05:53:59;;;;;;;13.88;11.82;;;24.20;85.00;;;;;;4992871;28;20056;-77
2023/08/19 05:56:25;;;;;;;15.27;11.60;;;24.30;84.80;;;;;;5021139;28;20485;-77
2023/08/19 05:58:51;;;;;;;15.27;11.98;;;24.30;84.90;;;;;;5008799;28;20038;-78
2023/08/19 06:01:17;;;;;;;17.25;12.10;;;24.30;84.90;;;;;;4984965;28;20108;-77
2023/08/19 06:03:42;;;;;;;14.55;12.25;;;24.30;84.90;;;;;;4986713;28;20077;-77
2023/08/19 06:06:08;;;;;;;16.42;12.43;;;24.40;84.90;;;;;;4983961;28;20061;-78
2023/08/19 06:08:34;;;;;;;17.15;13.07;;;24.40;84.70;;;;;;4989305;28;20121;-79
2023/08/19 06:11:07;;;;;;;15.45;12.25;;;24.40;84.70;;;;;;4983529;28;20348;-77
2023/08/19 06:13:33;;;;;;;16.05;12.70;;;24.50;84.60;;;;;;5000126;28;20033;-78
2023/08/19 06:16:00;;;;;;;16.25;13.88;;;24.40;84.60;;;;;;5019242;28;20037;-78
2023/08/19 06:18:25;;;;;;;16.92;14.15;;;24.40;84.80;;;;;;5017518;28;20092;-78
2023/08/19 06:20:52;;;;;;;15.90;13.10;;;24.40;84.80;;;;;;5023956;28;20607;-77
2023/08/19 06:23:18;;;;;;;16.33;13.15;;;24.40;84.70;;;;;;5012951;28;20049;-78
2023/08/19 06:25:49;;;;;;;15.45;13.05;;;24.40;84.60;;;;;;5020321;28;20120;-79
2023/08/19 06:28:15;;;;;;;16.13;14.07;;;24.40;84.60;;;;;;5013320;28;20014;-77
2023/08/19 06:30:41;;;;;;;18.55;13.02;;;24.40;84.60;;;;;;5010592;28;20030;-78
2023/08/19 06:33:07;;;;;;;14.55;12.68;;;24.40;84.40;;;;;;5016322;28;20041;-79
2023/08/19 06:35:33;;;;;;;14.07;9.95;;;24.50;84.10;;;;;;4994352;28;20055;-78
2023/08/19 06:38:06;;;;;;;12.32;10.10;;;24.50;82.80;;;;;;4993251;28;20033;-78
2023/08/19 06:40:34;;;;;;;12.63;8.70;;;24.40;82.50;;;;;;4994414;28;20034;-79
2023/08/19 06:43:00;;;;;;;12.98;8.73;;;24.40;82.00;;;;;;4989744;28;20038;-78
2023/08/19 06:45:26;;;;;;;12.52;8.18;;;24.50;81.50;;;;;;4986952;28;20576;-78
2023/08/19 06:47:53;;;;;;;12.38;8.75;;;24.40;81.50;;;;;;4989126;28;20057;-79
2023/08/19 06:50:19;;;;;;;13.02;7.63;;;24.40;81.40;;;;;;5010758;28;20048;-79
2023/08/19 06:52:45;;;;;;;13.75;8.38;;;24.40;81.40;;;;;;5024247;28;20029;-78
2023/08/19 06:55:12;;;;;;;12.32;9.73;;;24.50;80.80;;;;;;5005507;28;20031;-79
2023/08/19 06:57:47;;;;;;;11.77;9.13;;;24.50;81.20;;;;;;5013138;28;20053;-79
2023/08/19 07:00:14;;;;;;;13.93;9.23;;;24.40;81.00;;;;;;5001885;28;20130;-79
2023/08/19 07:02:40;;;;;;;11.77;9.38;;;24.40;81.20;;;;;;5011389;28;20030;-78
2023/08/19 07:05:15;;;;;;;14.82;9.43;;;24.30;81.30;;;;;;5007212;28;20042;-79
2023/08/19 07:07:49;;;;;;;21.77;9.45;;;24.30;81.10;;;;;;5001367;28;20034;-79
2023/08/19 07:10:16;;;;;;;14.23;9.65;;;24.30;81.30;;;;;;5007630;28;20046;-78
2023/08/19 07:12:43;;;;;;;13.48;9.68;;;24.40;80.80;;;;;;5006710;28;20038;-79
2023/08/19 07:15:13;;;;;;;11.80;8.73;;;24.30;81.00;;;;;;5008101;28;20030;-80
2023/08/19 07:17:44;;;;;;;14.63;9.00;;;24.40;81.00;;;;;;5009604;28;20304;-79
2023/08/19 07:20:17;;;;;;;11.43;9.07;;;24.50;80.70;;;;;;5006645;28;20118;-79
2023/08/19 07:22:49;;;;;;;13.35;8.90;;;24.50;80.40;;;;;;4999906;28;20084;-79
2023/08/19 07:25:15;;;;;;;13.07;8.82;;;24.40;80.50;;;;;;4995845;28;20091;-78
2023/08/19 07:27:45;;;;;;;13.45;9.75;;;24.30;80.60;;;;;;4990123;28;20026;-78
2023/08/19 07:30:11;;;;;;;14.10;9.55;;;24.20;80.80;;;;;;4998758;28;20398;-79
2023/08/19 07:32:38;;;;;;;13.00;9.10;;;24.20;81.30;;;;;;4997438;28;20062;-78
2023/08/19 07:35:04;;;;;;;12.73;9.13;;;24.30;81.20;;;;;;4996967;28;20042;-79
2023/08/19 07:37:30;;;;;;;12.07;9.77;;;24.40;81.20;;;;;;4995799;28;20023;-79
2023/08/19 07:39:57;;;;;;;11.90;9.98;;;24.40;81.20;;;;;;4988947;28;20392;-78
2023/08/19 07:42:23;;;;;;;12.77;9.70;;;24.40;81.40;;;;;;4996548;28;20030;-80
2023/08/19 07:44:49;;;;;;;15.18;10.98;;;24.50;81.30;;;;;;5013505;28;20135;-79
2023/08/19 07:47:14;;;;;;;12.52;10.20;;;24.80;81.00;;;;;;5019049;28;20478;-79
2023/08/19 07:49:40;;;;;;;14.52;11.40;;;25.10;79.60;;;;;;5019909;28;20509;-78
2023/08/19 07:52:06;;;;;;;13.45;9.82;;;25.40;78.30;;;;;;5005831;28;20454;-79
2023/08/19 07:54:32;;;;;;;14.55;10.10;;;25.60;78.10;;;;;;5002666;28;20030;-79
2023/08/19 07:56:58;;;;;;;13.73;9.77;;;25.60;77.20;;;;;;5013332;28;20034;-78
2023/08/19 07:59:25;;;;;;;15.20;10.95;;;25.50;77.00;;;;;;5009612;28;20033;-78
2023/08/19 08:01:51;;;;;;;14.68;10.10;;;25.10;77.10;;;;;;5002687;28;20419;-78
2023/08/19 08:04:17;;;;;;;13.60;9.65;;;24.80;78.10;;;;;;5007223;28;20077;-78
2023/08/19 08:06:44;;;;;;;13.63;9.35;;;24.60;78.70;;;;;;5017422;28;20522;-78
2023/08/19 08:09:10;;;;;;;14.77;9.35;;;24.50;78.80;;;;;;5016824;28;20038;-79
2023/08/19 08:11:36;;;;;;;14.05;8.82;;;24.30;79.10;;;;;;5017782;28;20457;-78
2023/08/19 08:14:02;;;;;;;13.80;7.82;;;24.50;79.20;;;;;;5006539;28;20061;-78
2023/08/19 08:16:28;;;;;;;11.10;6.88;;;24.50;77.80;;;;;;5010376;28;20048;-79
2023/08/19 08:18:53;;;;;;;14.52;7.53;;;24.30;77.30;;;;;;5017416;28;20359;-78
2023/08/19 08:21:20;;;;;;;11.80;7.40;;;24.10;77.60;;;;;;5016287;28;20021;-79
2023/08/19 08:23:46;;;;;;;12.23;6.90;;;24.00;78.10;;;;;;5015458;28;20117;-78
2023/08/19 08:26:13;;;;;;;12.98;6.88;;;23.80;78.80;;;;;;5015186;28;20044;-78
2023/08/19 08:28:38;;;;;;;11.73;7.13;;;23.60;79.80;;;;;;5014067;28;20039;-78
2023/08/19 08:31:05;;;;;;;12.52;6.63;;;23.40;80.40;;;;;;5010020;28;20564;-77
2023/08/19 08:33:31;;;;;;;10.73;6.70;;;23.40;80.70;;;;;;5017050;28;20065;-77
2023/08/19 08:35:58;;;;;;;10.95;6.35;;;23.60;81.00;;;;;;5014464;28;20438;-77
2023/08/19 08:38:24;;;;;;;10.60;5.47;;;23.70;80.10;;;;;;5010298;28;20141;-78
2023/08/19 08:40:50;;;;;;;10.18;5.10;;;23.60;79.70;;;;;;4989455;28;20475;-77
2023/08/19 08:43:15;;;;;;;11.63;4.93;;;23.70;79.40;;;;;;5002811;28;20052;-78
2023/08/19 08:45:42;;;;;;;10.93;5.15;;;23.70;78.70;;;;;;5008369;28;20446;-76
2023/08/19 08:48:10;;;;;;;11.40;4.93;;;23.60;78.80;;;;;;5011110;28;20018;-77
2023/08/19 08:50:36;;;;;;;10.20;3.97;;;23.70;78.20;;;;;;5010730;28;20038;-78
2023/08/19 08:53:02;;;;;;;9.57;3.92;;;24.10;76.90;;;;;;5008752;28;20026;-78
2023/08/19 08:55:28;;;;;;;9.95;4.03;;;24.50;75.00;;;;;;5001639;28;20374;-79
2023/08/19 08:57:54;;;;;;;10.63;4.25;;;24.80;73.80;;;;;;5007272;28;20026;-78
2023/08/19 09:00:20;;;;;;;9.25;3.83;;;24.90;72.70;;;;;;5002987;28;20022;-78
2023/08/19 09:02:47;;;;;;;11.15;4.15;;;25.00;73.20;;;;;;4987510;28;20463;-78
2023/08/19 09:05:13;;;;;;;7.88;4.05;;;25.30;72.00;;;;;;4985559;28;20031;-77
2023/08/19 09:07:41;;;;;;;9.38;3.95;;;25.50;71.70;;;;;;4994719;28;20042;-78
2023/08/19 09:10:14;;;;;;;9.18;3.92;;;25.10;71.50;;;;;;5010123;28;20048;-78
2023/08/19 09:12:44;;;;;;;7.50;3.30;;;25.20;72.10;;;;;;5012578;28;20494;-78
2023/08/19 09:15:11;;;;;;;9.75;3.67;;;25.70;71.70;;;;;;5007203;28;20041;-78
2023/08/19 09:17:38;;;;;;;9.48;3.78;;;26.30;69.20;;;;;;5013133;28;20045;-78
2023/08/19 09:20:06;;;;;;;8.15;3.70;;;26.70;68.00;;;;;;5014874;28;20381;-79
2023/08/19 09:22:31;;;;;;;8.63;4.30;;;27.00;66.50;;;;;;5017227;28;20087;-78
2023/08/19 09:24:57;;;;;;;9.63;4.15;;;26.60;67.90;;;;;;5012632;28;20072;-78
2023/08/19 09:27:27;;;;;;;9.65;3.53;;;26.60;66.90;;;;;;5016056;28;20025;-78
2023/08/19 09:29:54;;;;;;;9.30;4.20;;;26.70;67.90;;;;;;5014119;28;20069;-78
2023/08/19 09:32:27;;;;;;;8.75;3.92;;;26.40;68.40;;;;;;5009799;28;20104;-78
2023/08/19 09:35:08;;;;;;;8.75;3.50;;;26.60;68.40;;;;;;5012755;28;20100;-79
2023/08/19 09:37:35;;;;;;;8.23;3.40;;;26.40;68.00;;;;;;5013914;28;20026;-78
2023/08/19 09:40:07;;;;;;;9.20;3.20;;;26.00;70.00;;;;;;5004494;28;20519;-78
2023/08/19 09:42:33;;;;;;;7.90;3.70;;;25.90;70.50;;;;;;4981554;28;20022;-78
2023/08/19 09:44:59;;;;;;;10.85;3.92;;;25.90;69.90;;;;;;4996921;28;20113;-78
2023/08/19 09:47:24;;;;;;;8.77;3.10;;;25.50;70.50;;;;;;4991327;28;20088;-78
2023/08/19 09:49:52;;;;;;;7.70;3.58;;;25.60;69.90;;;;;;4994743;28;20364;-79
2023/08/19 09:52:18;;;;;;;8.13;3.17;;;25.50;70.10;;;;;;4991654;28;20054;-78
2023/08/19 09:54:53;;;;;;;12.40;3.35;;;25.40;69.20;;;;;;4979490;28;20062;-78
2023/08/19 09:57:39;;;;;;;9.88;3.30;;;25.10;69.40;;;;;;4995897;28;20078;-79
2023/08/19 10:00:05;;;;;;;7.32;3.25;;;25.10;69.90;;;;;;5007208;28;20034;-78
2023/08/19 10:02:33;;;;;;;9.00;3.20;;;25.00;69.90;;;;;;5008889;28;20387;-78
2023/08/19 10:04:58;;;;;;;10.30;3.10;;;24.90;70.10;;;;;;5007175;28;20121;-78
2023/08/19 10:07:30;;;;;;;10.93;3.60;;;25.00;70.80;;;;;;5003959;28;20125;-78
2023/08/19 10:09:58;;;;;;;6.88;2.75;;;25.00;70.40;;;;;;5000648;28;20152;-78
2023/08/19 10:12:26;;;;;;;8.63;3.33;;;25.20;70.30;;;;;;4995526;28;20037;-79
2023/08/19 10:14:55;;;;;;;11.85;3.63;;;25.10;68.40;;;;;;4986152;28;20074;-78
2023/08/19 10:17:22;;;;;;;7.65;3.13;;;25.00;69.20;;;;;;4988002;28;20105;-77
2023/08/19 10:19:58;;;;;;;6.75;2.80;;;24.90;70.10;;;;;;4987992;28;20463;-77
2023/08/19 10:22:26;;;;;;;7.90;2.88;;;24.80;70.30;;;;;;4985815;28;20022;-77
2023/08/19 10:24:55;;;;;;;8.50;3.60;;;24.90;69.40;;;;;;4983261;28;20053;-78
2023/08/19 10:27:21;;;;;;;6.57;2.90;;;25.00;69.40;;;;;;4988393;28;20026;-78
2023/08/19 10:29:55;;;;;;;9.13;3.20;;;25.10;69.80;;;;;;4991060;28;20052;-78
2023/08/19 10:32:30;;;;;;;;;;;25.20;69.20;;;;;;4989282;28;20046;-78
2023/08/19 10:35:08;;;;;;;9.43;3.63;;;25.30;68.40;;;;;;5008634;28;20344;-77
2023/08/19 10:37:35;;;;;;;7.07;3.08;;;25.00;68.70;;;;;;5006191;28;20084;-78
2023/08/19 10:40:11;;;;;;;8.85;3.10;;;24.90;68.50;;;;;;5018405;28;20048;-78
2023/08/19 10:42:37;;;;;;;7.18;3.42;;;24.50;69.80;;;;;;5008648;28;20026;-77
2023/08/19 10:45:05;;;;;;;7.75;3.08;;;24.50;71.00;;;;;;4997639;28;20379;-76
2023/08/19 10:47:31;;;;;;;8.55;2.75;;;24.40;70.40;;;;;;5012995;28;20041;-79
2023/08/19 10:50:01;;;;;;;9.70;3.88;;;24.30;71.30;;;;;;5013337;28;20386;-79
2023/08/19 10:52:28;;;;;;;7.63;2.72;;;24.40;71.10;;;;;;5005025;28;20041;-78
2023/08/19 10:54:56;;;;;;;6.60;2.90;;;24.40;71.00;;;;;;5012210;28;20061;-78
2023/08/19 10:57:26;;;;;;;10.10;3.13;;;24.30;71.00;;;;;;5017209;28;20478;-78
2023/08/19 11:00:01;;;;;;;10.73;3.40;;;24.10;71.20;;;;;;4995747;28;20514;-76
2023/08/19 11:02:29;;;;;;;11.68;3.08;;;24.10;71.30;;;;;;4991572;28;20030;-78
2023/08/19 11:04:57;;;;;;;8.52;3.03;;;24.10;72.30;;;;;;4986899;28;20038;-79
2023/08/19 11:07:25;;;;;;;9.02;3.17;;;24.10;71.70;;;;;;4987844;28;20046;-78
2023/08/19 11:09:54;;;;;;;8.75;3.63;;;24.30;71.30;;;;;;4987224;28;20123;-78
2023/08/19 11:12:21;;;;;;;9.35;3.38;;;24.40;71.20;;;;;;4988080;28;20034;-78
2023/08/19 11:14:51;;;;;;;9.73;3.75;;;24.60;70.80;;;;;;4989511;28;20375;-79
2023/08/19 11:17:18;;;;;;;8.38;3.60;;;24.60;70.90;;;;;;4997196;28;20038;-79
2023/08/19 11:19:46;;;;;;;7.15;2.92;;;24.50;70.50;;;;;;4986578;28;20471;-78
2023/08/19 11:22:13;;;;;;;8.52;3.70;;;24.40;70.80;;;;;;4998177;28;20034;-79
2023/08/19 11:24:40;;;;;;;11.70;3.08;;;24.50;70.60;;;;;;4989008;28;20046;-79
2023/08/19 11:27:07;;;;;;;6.07;2.65;;;24.40;70.50;;;;;;4994638;28;20080;-79
2023/08/19 11:29:32;;;;;;;7.45;2.90;;;24.30;70.80;;;;;;4992496;28;20179;-79
2023/08/19 11:32:00;;;;;;;6.20;2.90;;;24.20;70.80;;;;;;4991910;28;20522;-79
2023/08/19 11:34:30;;;;;;;6.97;3.00;;;24.20;71.20;;;;;;4990849;28;20391;-78
2023/08/19 11:36:56;;;;;;;6.97;3.10;;;24.40;71.00;;;;;;4986756;28;20527;-78
2023/08/19 11:39:22;;;;;;;9.23;3.38;;;24.60;70.80;;;;;;4976944;28;20082;-79
2023/08/19 11:41:47;;;;;;;11.23;3.67;;;24.80;69.10;;;;;;4986061;28;20038;-79
2023/08/19 11:44:14;;;;;;;8.43;2.75;;;25.10;69.50;;;;;;4996708;28;20100;-78
2023/08/19 11:46:40;;;;;;;8.38;3.83;;;25.30;68.50;;;;;;5013959;28;20137;-79
2023/08/19 11:49:10;;;;;;;7.70;3.15;;;25.40;69.60;;;;;;5018732;28;20117;-80
2023/08/19 11:51:37;;;;;;;9.95;3.28;;;25.50;67.50;;;;;;4989769;28;20418;-79
2023/08/19 11:54:05;;;;;;;7.78;3.10;;;25.60;67.60;;;;;;4984128;28;20093;-79
2023/08/19 11:56:49;;;;;;;7.60;2.88;;;25.60;67.30;;;;;;4976915;28;20034;-79
2023/08/19 11:59:15;;;;;;;7.55;2.85;;;25.70;66.90;;;;;;4998794;28;20045;-79
2023/08/19 12:01:40;;;;;;;8.23;2.97;;;25.60;65.90;;;;;;5007207;28;20061;-79
2023/08/19 12:04:11;;;;;;;7.78;2.72;;;25.60;67.50;;;;;;5008275;28;20057;-78
2023/08/19 12:06:38;;;;;;;8.30;2.42;;;26.00;64.90;;;;;;5014799;28;20350;-79
2023/08/19 12:09:04;;;;;;;7.70;2.15;;;26.50;63.60;;;;;;5018003;28;20030;-79
2023/08/19 12:11:30;;;;;;;4.82;2.30;;;26.90;61.40;;;;;;5008689;28;20034;-78
2023/08/19 12:13:56;;;;;;;8.43;2.55;;;27.00;60.40;;;;;;5010318;28;20360;-78
2023/08/19 12:16:22;;;;;;;7.97;2.30;;;26.70;61.50;;;;;;4995998;28;20054;-78
2023/08/19 12:18:48;;;;;;;7.25;2.38;;;26.50;61.60;;;;;;5007158;28;20124;-77
2023/08/19 12:21:14;;;;;;;6.55;2.28;;;26.60;62.20;;;;;;5002653;28;20666;-78
2023/08/19 12:23:39;;;;;;;5.78;2.10;;;26.80;61.30;;;;;;5014051;28;20390;-78
2023/08/19 12:26:05;;;;;;;7.65;2.60;;;27.10;61.80;;;;;;5006779;28;20155;-79
2023/08/19 12:28:31;;;;;;;7.55;2.47;;;27.20;60.90;;;;;;5020503;28;20125;-79
2023/08/19 12:30:57;;;;;;;10.93;2.42;;;27.10;60.30;;;;;;5005672;28;20466;-79
2023/08/19 12:33:23;;;;;;;7.03;1.95;;;27.10;59.50;;;;;;5009958;28;20021;-79
2023/08/19 12:35:49;;;;;;;6.28;2.10;;;27.50;59.10;;;;;;5008776;28;20385;-79